Plymouth, MI (48170)

3:49 PM EST on February 01, 2015 (GMT -0500)
Napier Observatory | Change Station
CLOSE
Current Station
Personal Weather Station
Location: Canton, MI
Elevation: 798 ft
Nearby Weather Stations

Elev 798 ft 42.34 °N, 83.55 °W | Updated 2 seconds ago

Snow
Snow
20.3 °F
Feels Like 20 °F
N
1.0
Wind Variable Wind from East
Gusts 12.0 mph

Today
High -- | Low -- °F
--% Chance of Precip.
Yesterday
High -- | Low -- °F
Precip. -- in
7:47 AM 5:47 PM
Waxing Gibbous, 96% visible
Pressure 29.91 in
Visibility 0.2 miles
Clouds
Windchill 20 °F
Dew Point 17 °F
Humidity 88%
Rainfall 0.00 in
Snow Depth Not available.
UV Not available.
Pollen .10 out of 12
Air Quality Not available.
Flu Activity Not available.
METAR KYIP 011953Z 05016KT 1/4SM +SN VV007 M04/M07 A2989 RMK AO2 PRESFR SLP129 P0000 T10391072 RVRNO

More Conditions Fewer Conditions

Pressure 29.91 in
Visibility 0.2 miles
Clouds
Windchill 20 °F
Dew Point 17 °F
Humidity 88%
Rainfall 0.00 in
Snow Depth Not available.
UV Not available.
Pollen .10 out of 12
Air Quality Not available.
Flu Activity Not available.
METAR KYIP 011953Z 05016KT 1/4SM +SN VV007 M04/M07 A2989 RMK AO2 PRESFR SLP129 P0000 T10391072 RVRNO

More Conditions Fewer Conditions

10-Day Weather Forecast

Almanac

Astronomy

Feb. 01, 2015 Rise Set
Actual Time
Civil Twilight
Nautical Twilight
Astronomical Twilight
Moon
Length of Visible Light
Length of Day
Tomorrow will be .
, % of the Moon is Illuminated

Today's Extremes

State Highs State Lows

Community

WunderPhotos

Upload Photos

1,792,514 photos uploaded!

WunderBlogs® & News

Nearby

Air Quality

  Air Quality AQ Index Pollutant
Not available.

Snow Depth

Station Depth Elevation

Earthquake Activity

City Distance Mag. Time & Date
Minimum magnitude displayed is 2.5.

Coastal Water Temperatures

Place Temperature

Nearby Weather Stations